createdAt,value
2018-07-11T00:01:15.659Z,6.13
2018-07-11T00:03:46.785Z,6.70
2018-07-11T00:06:16.496Z,3.20
2018-07-11T00:08:44.928Z,8.33
2018-07-11T00:11:13.660Z,4.90
2018-07-11T00:13:43.698Z,2.80
2018-07-11T00:16:12.759Z,21.23
2018-07-11T00:18:41.261Z,6.43
2018-07-11T00:21:09.717Z,3.43
2018-07-11T00:23:38.506Z,20.57
2018-07-11T00:26:08.237Z,3.17
2018-07-11T00:28:36.378Z,2.17
2018-07-11T00:31:04.824Z,2.80
2018-07-11T00:33:33.377Z,2.77
2018-07-11T00:36:01.520Z,3.20
2018-07-11T00:38:30.323Z,2.50
2018-07-11T00:40:59.929Z,3.00
2018-07-11T00:43:30.573Z,2.50
2018-07-11T00:45:59.911Z,2.80
2018-07-11T00:48:28.545Z,3.17
2018-07-11T00:50:57.516Z,2.73
2018-07-11T00:53:27.180Z,2.83
2018-07-11T00:55:55.609Z,3.20
2018-07-11T00:58:59.352Z,3.33
2018-07-11T01:01:27.860Z,3.60
2018-07-11T01:03:58.299Z,3.07
2018-07-11T01:06:26.766Z,3.50
2018-07-11T01:08:56.413Z,3.80
2018-07-11T01:11:25.496Z,4.30
2018-07-11T01:13:54.106Z,3.67
2018-07-11T01:16:23.524Z,3.70
2018-07-11T01:19:08.101Z,3.10
2018-07-11T01:21:37.664Z,3.90
2018-07-11T01:24:07.619Z,3.97
2018-07-11T01:26:39.061Z,3.83
2018-07-11T01:29:08.860Z,3.70
2018-07-11T01:31:37.864Z,3.63
2018-07-11T01:34:06.379Z,5.10
2018-07-11T01:36:34.850Z,4.60
2018-07-11T01:39:04.163Z,4.20
2018-07-11T01:41:32.637Z,5.30
2018-07-11T01:44:01.305Z,5.83
2018-07-11T01:46:43.571Z,4.80
2018-07-11T01:49:12.250Z,5.33
2018-07-11T01:51:52.366Z,4.30
2018-07-11T01:54:20.866Z,5.23
2018-07-11T01:56:49.431Z,5.13
2018-07-11T01:59:17.897Z,4.17
2018-07-11T02:01:46.362Z,4.90
2018-07-11T02:04:14.944Z,5.30
2018-07-11T02:06:43.640Z,4.37
2018-07-11T02:09:12.258Z,4.90
2018-07-11T02:11:40.779Z,4.37
2018-07-11T02:14:09.421Z,4.90
2018-07-11T02:16:38.009Z,3.93
2018-07-11T02:19:06.686Z,4.10
2018-07-11T02:21:35.154Z,4.50
2018-07-11T02:24:04.880Z,6.10
2018-07-11T02:26:33.407Z,5.60
2018-07-11T02:29:02.001Z,5.30
2018-07-11T02:31:30.631Z,5.10
2018-07-11T02:33:59.168Z,6.60
2018-07-11T02:36:27.627Z,6.73
2018-07-11T02:38:56.057Z,6.37
2018-07-11T02:41:24.483Z,5.83
2018-07-11T02:43:52.952Z,6.53
2018-07-11T02:46:25.606Z,5.23
2018-07-11T02:48:54.097Z,5.93
2018-07-11T02:51:22.579Z,5.30
2018-07-11T02:53:51.127Z,6.80
2018-07-11T02:56:19.703Z,6.20
2018-07-11T02:58:48.195Z,6.90
2018-07-11T03:01:16.732Z,6.47
2018-07-11T03:03:45.368Z,7.93
2018-07-11T03:06:13.855Z,7.70
2018-07-11T03:08:42.299Z,8.27
2018-07-11T03:11:10.934Z,8.20
2018-07-11T03:13:39.364Z,8.73
2018-07-11T03:16:07.824Z,11.17
2018-07-11T03:18:36.286Z,25.67
2018-07-11T03:21:04.828Z,9.37
2018-07-11T03:23:33.278Z,11.80
2018-07-11T03:26:01.790Z,10.90
2018-07-11T03:28:30.269Z,12.43
2018-07-11T03:30:58.798Z,9.30
2018-07-11T03:33:27.290Z,10.57
2018-07-11T03:35:55.736Z,10.40
2018-07-11T03:38:24.182Z,13.13
2018-07-11T03:40:52.801Z,11.27
2018-07-11T03:43:21.337Z,10.53
2018-07-11T03:45:49.797Z,10.53
2018-07-11T03:48:18.261Z,11.80
2018-07-11T03:50:46.985Z,12.37
2018-07-11T03:53:15.565Z,11.53
2018-07-11T03:55:44.000Z,11.60
2018-07-11T03:58:12.980Z,12.00
2018-07-11T04:00:41.423Z,12.00
2018-07-11T04:03:09.901Z,12.10
2018-07-11T04:05:39.258Z,12.77
2018-07-11T04:08:07.809Z,10.27
2018-07-11T04:10:36.307Z,11.30
2018-07-11T04:13:04.461Z,10.33
2018-07-11T04:15:32.892Z,9.80
2018-07-11T04:18:01.347Z,9.80
2018-07-11T04:20:29.852Z,11.40
2018-07-11T04:22:58.276Z,10.00
2018-07-11T04:25:26.781Z,9.23
2018-07-11T04:27:55.271Z,9.60
2018-07-11T04:30:23.738Z,8.80
2018-07-11T04:32:52.228Z,9.63
2018-07-11T04:35:20.698Z,10.20
2018-07-11T04:37:49.247Z,10.97
2018-07-11T04:40:18.173Z,9.50
2018-07-11T04:42:46.743Z,8.37
2018-07-11T04:45:15.831Z,8.50
2018-07-11T04:47:44.473Z,8.00
2018-07-11T04:50:13.028Z,8.60
2018-07-11T04:52:41.886Z,8.57
2018-07-11T04:55:10.576Z,9.23
2018-07-11T04:57:39.798Z,10.50
2018-07-11T05:00:08.296Z,14.30
2018-07-11T05:02:37.731Z,9.17
2018-07-11T05:05:06.311Z,11.57
2018-07-11T05:07:34.727Z,10.60
2018-07-11T05:10:03.413Z,12.00
2018-07-11T05:12:31.928Z,11.53
2018-07-11T05:15:00.368Z,11.80
2018-07-11T05:17:28.784Z,13.33
2018-07-11T05:19:57.324Z,12.00
2018-07-11T05:22:25.763Z,12.87
2018-07-11T05:24:54.327Z,13.07
2018-07-11T05:27:22.749Z,13.60
2018-07-11T05:29:51.273Z,12.40
2018-07-11T05:32:19.712Z,12.23
2018-07-11T05:34:48.145Z,13.50
2018-07-11T05:37:16.663Z,13.70
2018-07-11T05:39:45.120Z,13.53
2018-07-11T05:42:13.565Z,12.80
2018-07-11T05:44:42.139Z,12.30
2018-07-11T05:47:10.353Z,13.37
2018-07-11T05:49:38.890Z,11.03
2018-07-11T05:52:07.470Z,11.93
2018-07-11T05:54:35.875Z,12.83
2018-07-11T05:57:04.397Z,12.17
2018-07-11T05:59:32.907Z,13.00
2018-07-11T06:02:01.295Z,14.93
2018-07-11T06:04:29.935Z,16.10
2018-07-11T06:06:58.394Z,18.97
2018-07-11T06:09:26.857Z,19.93
2018-07-11T06:11:55.261Z,19.50
2018-07-11T06:14:23.732Z,20.70
2018-07-11T06:16:52.199Z,20.87
2018-07-11T06:19:20.741Z,23.30
2018-07-11T06:21:50.446Z,21.80
2018-07-11T06:24:19.578Z,19.63
2018-07-11T06:26:48.396Z,19.00
2018-07-11T06:29:16.947Z,19.23
2018-07-11T06:31:45.400Z,18.17
2018-07-11T06:34:13.841Z,18.37
2018-07-11T06:36:42.301Z,18.20
2018-07-11T06:39:10.965Z,19.37
2018-07-11T06:41:39.482Z,19.17
2018-07-11T06:44:07.956Z,18.50
2018-07-11T06:46:36.512Z,18.47
2018-07-11T06:49:05.144Z,16.83
2018-07-11T06:51:33.607Z,16.43
2018-07-11T06:54:02.053Z,15.10
2018-07-11T06:56:30.497Z,15.10
2018-07-11T06:58:59.003Z,25.63
2018-07-11T07:01:27.450Z,15.13
2018-07-11T07:03:55.884Z,14.73
2018-07-11T07:06:24.387Z,15.80
2018-07-11T07:08:53.031Z,14.33
2018-07-11T07:11:21.470Z,14.70
2018-07-11T07:13:49.909Z,14.80
2018-07-11T07:16:18.375Z,14.20
2018-07-11T07:18:46.816Z,12.93
2018-07-11T07:21:15.352Z,12.53
2018-07-11T07:23:43.780Z,12.77
2018-07-11T07:26:12.391Z,11.73
2018-07-11T07:28:40.873Z,11.80
2018-07-11T07:31:09.317Z,10.87
2018-07-11T07:33:37.793Z,12.20
2018-07-11T07:36:06.550Z,12.43
2018-07-11T07:38:41.490Z,12.10
2018-07-11T07:41:10.084Z,12.60
2018-07-11T07:43:39.170Z,13.60
2018-07-11T07:46:07.978Z,13.93
2018-07-11T07:48:36.508Z,13.95
2018-07-11T07:51:05.045Z,12.73
2018-07-11T07:53:34.274Z,12.80
2018-07-11T07:56:02.884Z,21.33
2018-07-11T07:58:31.582Z,18.52
2018-07-11T08:01:00.091Z,20.37
2018-07-11T08:03:28.619Z,18.57
2018-07-11T08:05:57.207Z,17.45
2018-07-11T08:08:25.670Z,17.85
2018-07-11T08:10:54.120Z,20.55
2018-07-11T08:13:22.652Z,17.52
2018-07-11T08:15:51.379Z,14.30
2018-07-11T08:18:19.879Z,13.40
2018-07-11T08:20:48.343Z,12.70
2018-07-11T08:23:39.991Z,14.03
2018-07-11T08:26:20.014Z,17.93
2018-07-11T08:45:11.587Z,13.97
2018-07-11T08:50:01.654Z,15.10
2018-07-11T08:53:46.748Z,17.67
2018-07-11T08:56:30.366Z,16.47
2018-07-11T09:01:12.800Z,18.30
2018-07-11T09:13:22.764Z,12.37
2018-07-11T09:15:55.835Z,10.50
2018-07-11T09:20:41.026Z,10.57
2018-07-11T09:23:52.220Z,7.70
2018-07-11T09:26:20.762Z,8.27
2018-07-11T09:28:49.295Z,7.30
2018-07-11T09:31:17.794Z,5.53
2018-07-11T09:33:46.261Z,6.83
2018-07-11T09:36:16.331Z,5.27
2018-07-11T09:38:45.093Z,6.57
2018-07-11T09:41:19.049Z,5.90
2018-07-11T09:43:47.841Z,5.92
2018-07-11T09:46:16.309Z,6.62
2018-07-11T09:48:45.340Z,5.23
2018-07-11T09:51:13.811Z,4.03
2018-07-11T09:53:43.332Z,4.67
2018-07-11T09:56:16.164Z,4.22
2018-07-11T09:58:44.942Z,4.50
2018-07-11T10:01:18.841Z,4.03
2018-07-11T10:03:47.628Z,5.80
2018-07-11T10:06:16.293Z,5.72
2018-07-11T10:08:45.088Z,4.30
2018-07-11T10:11:13.762Z,5.00
2018-07-11T10:13:42.492Z,4.62
2018-07-11T10:16:11.502Z,4.92
2018-07-11T10:18:41.733Z,4.30
2018-07-11T10:21:10.452Z,4.83
2018-07-11T10:23:39.132Z,4.70
2018-07-11T10:26:07.589Z,4.97
2018-07-11T10:28:36.118Z,5.00
2018-07-11T10:31:04.612Z,5.53
2018-07-11T10:33:33.269Z,5.20
2018-07-11T10:36:01.718Z,5.40
2018-07-11T10:38:31.025Z,5.20
2018-07-11T10:40:59.597Z,4.57
2018-07-11T10:43:28.816Z,5.40
2018-07-11T10:45:57.431Z,5.43
2018-07-11T10:48:26.012Z,5.63
2018-07-11T10:50:54.580Z,5.73
2018-07-11T10:53:22.748Z,5.23
2018-07-11T10:55:51.220Z,4.97
2018-07-11T10:58:20.272Z,4.95
2018-07-11T11:01:05.029Z,5.17
2018-07-11T11:03:24.226Z,5.53
2018-07-11T11:05:53.433Z,6.83
2018-07-11T11:08:22.169Z,6.53
2018-07-11T11:10:50.998Z,5.13
2018-07-11T11:13:20.265Z,5.13
2018-07-11T11:15:49.111Z,4.77
2018-07-11T11:18:17.656Z,4.40
2018-07-11T11:20:46.388Z,3.60
2018-07-11T11:23:14.876Z,3.47
2018-07-11T11:25:43.997Z,4.10
2018-07-11T11:28:12.420Z,3.23
2018-07-11T11:30:40.883Z,5.10
2018-07-11T11:33:09.433Z,4.03
2018-07-11T11:35:38.067Z,3.70
2018-07-11T11:38:06.949Z,5.13
2018-07-11T11:40:35.665Z,3.70
2018-07-11T11:43:04.124Z,4.00
2018-07-11T11:45:32.556Z,3.70
2018-07-11T11:48:02.534Z,3.20
2018-07-11T11:50:31.393Z,3.00
2018-07-11T11:53:00.625Z,3.30
2018-07-11T11:55:30.101Z,2.80
2018-07-11T11:57:58.748Z,3.10
2018-07-11T12:00:27.437Z,3.50
2018-07-11T12:02:55.938Z,3.20
2018-07-11T12:05:24.406Z,3.57
2018-07-11T12:07:53.120Z,3.27
2018-07-11T12:10:21.619Z,3.73
2018-07-11T12:12:50.069Z,3.90
2018-07-11T12:15:18.621Z,4.57
2018-07-11T12:17:47.173Z,4.40
2018-07-11T12:20:15.648Z,4.13
2018-07-11T12:22:44.576Z,3.13
2018-07-11T12:25:13.108Z,3.40
2018-07-11T12:27:42.481Z,2.50
2018-07-11T12:30:11.005Z,2.40
2018-07-11T12:32:39.448Z,2.37
2018-07-11T12:35:08.041Z,2.00
2018-07-11T12:37:36.510Z,1.80
2018-07-11T12:40:05.438Z,1.80
2018-07-11T12:42:33.931Z,2.07
2018-07-11T12:45:02.556Z,2.30
2018-07-11T12:47:36.590Z,1.90
2018-07-11T12:50:05.119Z,1.90
2018-07-11T12:52:33.605Z,2.20
2018-07-11T12:55:02.053Z,2.37
2018-07-11T12:57:30.559Z,2.20
2018-07-11T12:59:59.040Z,2.30
2018-07-11T13:02:27.600Z,3.10
2018-07-11T13:04:55.759Z,3.40
2018-07-11T13:07:24.328Z,2.50
2018-07-11T13:09:52.897Z,2.60
2018-07-11T13:12:21.401Z,2.80
2018-07-11T13:14:49.922Z,2.30
2018-07-11T13:17:18.361Z,2.43
2018-07-11T13:19:46.488Z,2.10
2018-07-11T13:22:14.952Z,1.90
2018-07-11T13:24:43.382Z,1.87
2018-07-11T13:27:13.616Z,1.90
2018-07-11T13:29:42.261Z,1.77
2018-07-11T13:32:10.749Z,1.80
2018-07-11T13:34:39.368Z,1.90
2018-07-11T13:37:09.999Z,3.90
2018-07-11T13:39:38.514Z,1.97
2018-07-11T13:42:08.426Z,3.03
2018-07-11T13:44:44.427Z,2.20
2018-07-11T13:47:18.420Z,3.53
2018-07-11T13:49:46.888Z,3.20
2018-07-11T13:52:15.434Z,2.67
2018-07-11T13:54:43.951Z,2.57
2018-07-11T13:57:12.537Z,2.70
2018-07-11T13:59:41.064Z,3.33
2018-07-11T14:02:09.656Z,2.47
2018-07-11T14:04:38.098Z,2.40
2018-07-11T14:07:06.580Z,2.50
2018-07-11T14:09:35.003Z,3.63
2018-07-11T14:12:03.513Z,4.13
2018-07-11T14:14:32.171Z,2.50
2018-07-11T14:17:00.334Z,2.80
2018-07-11T14:19:28.889Z,2.40
2018-07-11T14:21:57.421Z,3.10
2018-07-11T14:24:27.114Z,2.60
2018-07-11T14:26:55.705Z,3.17
2018-07-11T14:29:27.988Z,2.53
2018-07-11T14:31:57.474Z,3.50
2018-07-11T14:34:25.936Z,3.07
2018-07-11T14:36:54.442Z,2.40
2018-07-11T14:39:22.933Z,2.50
2018-07-11T14:41:51.441Z,2.10
2018-07-11T14:44:19.929Z,2.70
2018-07-11T14:46:48.506Z,2.00
2018-07-11T14:49:17.228Z,2.30
2018-07-11T14:51:45.840Z,2.30
2018-07-11T14:54:14.360Z,3.27
2018-07-11T14:56:42.853Z,2.27
2018-07-11T14:59:11.597Z,3.07
2018-07-11T15:01:40.055Z,2.93
2018-07-11T15:04:08.570Z,2.83
2018-07-11T15:06:37.160Z,2.90
2018-07-11T15:09:06.103Z,3.47
2018-07-11T15:11:35.114Z,2.77
2018-07-11T15:14:04.040Z,3.30
2018-07-11T15:16:32.525Z,3.53
2018-07-11T15:19:01.071Z,3.87
2018-07-11T15:21:29.714Z,3.13
2018-07-11T15:23:58.234Z,5.00
2018-07-11T15:26:26.819Z,3.00
2018-07-11T15:28:55.348Z,3.03
2018-07-11T15:31:23.841Z,3.57
2018-07-11T15:33:53.248Z,2.77
2018-07-11T15:36:21.875Z,4.30
2018-07-11T15:38:50.644Z,5.30
2018-07-11T15:41:19.112Z,8.57
2018-07-11T15:43:47.688Z,6.00
2018-07-11T15:46:16.882Z,7.70
2018-07-11T15:48:45.357Z,7.13
2018-07-11T15:51:13.941Z,6.70
2018-07-11T15:53:42.697Z,7.10
2018-07-11T15:56:11.227Z,10.77
2018-07-11T15:58:40.000Z,8.20
2018-07-11T16:01:09.848Z,9.00
2018-07-11T16:03:42.393Z,8.07
2018-07-11T16:06:11.407Z,6.30
2018-07-11T16:08:45.436Z,6.80
2018-07-11T16:11:13.963Z,6.40
2018-07-11T16:13:42.579Z,5.67
2018-07-11T16:16:11.238Z,6.70
2018-07-11T16:18:39.706Z,6.53
2018-07-11T16:21:08.163Z,6.50
2018-07-11T16:23:36.790Z,6.80
2018-07-11T16:26:05.331Z,6.13
2018-07-11T16:28:33.905Z,6.67
2018-07-11T16:31:02.397Z,6.30
2018-07-11T16:33:31.000Z,6.40
2018-07-11T16:35:59.415Z,6.43
2018-07-11T16:38:27.936Z,6.20
2018-07-11T16:40:56.468Z,6.97
2018-07-11T16:43:25.309Z,6.70
2018-07-11T16:45:54.602Z,8.30
2018-07-11T16:48:23.074Z,17.33
2018-07-11T16:50:51.693Z,27.90
2018-07-11T16:53:20.409Z,14.23
2018-07-11T16:55:49.020Z,15.00
2018-07-11T16:58:29.339Z,12.60
2018-07-11T17:00:59.215Z,12.17
2018-07-11T17:03:29.231Z,14.47
2018-07-11T17:06:08.344Z,13.53
2018-07-11T17:08:40.181Z,15.90
2018-07-11T17:11:15.989Z,22.17
2018-07-11T17:13:51.570Z,25.00
2018-07-11T17:16:24.069Z,18.93
2018-07-11T17:18:57.336Z,16.37
2018-07-11T17:21:35.708Z,15.83
2018-07-11T17:24:07.498Z,12.93
2018-07-11T17:26:39.706Z,13.00
2018-07-11T17:29:08.292Z,10.30
2018-07-11T17:31:36.792Z,11.13
2018-07-11T17:34:05.417Z,10.80
2018-07-11T17:36:35.080Z,11.07
2018-07-11T17:39:03.445Z,10.70
2018-07-11T17:41:31.989Z,10.90
2018-07-11T17:44:03.094Z,11.43
2018-07-11T17:46:32.199Z,10.80
2018-07-11T17:49:09.706Z,11.80
2018-07-11T17:52:10.276Z,13.50
2018-07-11T17:55:16.094Z,11.67
2018-07-11T17:57:49.041Z,12.00
2018-07-11T18:00:56.597Z,11.80
2018-07-11T18:04:05.189Z,9.70
2018-07-11T18:06:40.129Z,10.20
2018-07-11T18:09:10.231Z,10.03
2018-07-11T18:12:08.291Z,13.50
2018-07-11T18:14:49.971Z,13.80
2018-07-11T18:17:26.624Z,8.27
2018-07-11T18:20:02.253Z,10.03
2018-07-11T18:22:39.307Z,10.30
2018-07-11T18:25:22.224Z,22.47
2018-07-11T18:32:08.687Z,42.70
2018-07-11T18:34:51.152Z,17.07
2018-07-11T18:37:24.815Z,15.70
2018-07-11T18:40:00.676Z,15.70
2018-07-11T18:42:48.999Z,16.23
2018-07-11T18:47:32.315Z,15.17
2018-07-11T18:52:39.695Z,15.20
2018-07-11T18:55:15.189Z,14.67
2018-07-11T18:58:13.272Z,15.40
2018-07-11T19:00:44.333Z,14.10
2018-07-11T19:03:36.273Z,14.93
2018-07-11T19:06:15.962Z,15.37
2018-07-11T19:08:56.302Z,15.17
2018-07-11T19:11:26.526Z,14.37
2018-07-11T19:14:02.153Z,15.97
2018-07-11T19:16:43.321Z,17.90
2018-07-11T19:19:15.296Z,89.33
2018-07-11T19:22:04.958Z,46.53
2018-07-11T19:24:43.898Z,43.03
2018-07-11T19:27:16.789Z,25.47
2018-07-11T19:30:51.339Z,29.20
2018-07-11T19:33:30.137Z,19.90
2018-07-11T19:36:16.253Z,19.10
2018-07-11T19:40:23.381Z,21.57
2018-07-11T19:43:01.780Z,23.43
2018-07-11T19:45:47.433Z,25.70
2018-07-11T19:50:33.845Z,24.80
2018-07-11T19:53:09.251Z,35.90
2018-07-11T19:56:49.703Z,36.13
2018-07-11T19:59:18.273Z,36.03
2018-07-11T20:01:47.172Z,36.23
2018-07-11T20:04:16.210Z,32.37
2018-07-11T20:06:44.967Z,31.77
2018-07-11T20:09:13.473Z,29.20
2018-07-11T20:11:41.981Z,28.90
2018-07-11T20:14:10.564Z,27.27
2018-07-11T20:16:39.240Z,29.53
2018-07-11T20:19:07.759Z,27.33
2018-07-11T20:21:36.188Z,58.43
2018-07-11T20:24:04.695Z,26.37
2018-07-11T20:26:33.176Z,26.77
2018-07-11T20:29:03.015Z,27.30
2018-07-11T20:31:31.573Z,24.47
2018-07-11T20:34:00.666Z,24.63
2018-07-11T20:36:29.307Z,26.37
2018-07-11T20:38:57.831Z,22.20
2018-07-11T20:41:26.420Z,25.77
2018-07-11T20:43:54.970Z,24.13
2018-07-11T20:46:23.480Z,24.80
2018-07-11T20:48:57.094Z,23.40
2018-07-11T20:51:25.555Z,24.20
2018-07-11T20:53:54.126Z,22.37
2018-07-11T20:56:22.652Z,24.70
2018-07-11T20:59:02.443Z,26.47
2018-07-11T21:01:42.282Z,23.87
2018-07-11T21:04:21.768Z,25.93
2018-07-11T21:07:02.678Z,25.40
2018-07-11T21:10:18.353Z,24.33
2018-07-11T21:12:58.132Z,22.80
2018-07-11T21:17:35.089Z,21.47
2018-07-11T21:20:04.009Z,24.77
2018-07-11T21:22:32.486Z,22.43
2018-07-11T21:25:01.076Z,22.90
2018-07-11T21:27:29.527Z,22.17
2018-07-11T21:29:58.004Z,20.20
2018-07-11T21:32:26.451Z,20.53
2018-07-11T21:34:54.891Z,20.40
2018-07-11T21:37:23.401Z,21.80
2018-07-11T21:39:51.878Z,22.27
2018-07-11T21:42:20.330Z,24.30
2018-07-11T21:44:48.808Z,24.97
2018-07-11T21:47:17.272Z,26.10
2018-07-11T21:49:45.693Z,25.37
2018-07-11T21:52:14.153Z,26.63
2018-07-11T21:54:42.672Z,25.77
2018-07-11T21:57:11.128Z,27.23
2018-07-11T21:59:39.648Z,26.40
2018-07-11T22:02:08.121Z,24.77
2018-07-11T22:04:37.696Z,23.37
2018-07-11T22:07:06.316Z,21.70
2018-07-11T22:09:34.799Z,22.10
2018-07-11T22:12:03.261Z,18.57
2018-07-11T22:14:31.984Z,19.60
2018-07-11T22:17:10.417Z,20.10
2018-07-11T22:19:37.725Z,22.43
2018-07-11T22:22:05.181Z,20.10
2018-07-11T22:24:32.484Z,17.10
2018-07-11T22:26:59.820Z,17.83
2018-07-11T22:29:27.118Z,17.43
2018-07-11T22:31:54.453Z,16.73
2018-07-11T22:34:21.799Z,16.43
2018-07-11T22:36:49.520Z,15.60
2018-07-11T22:39:16.911Z,15.37
2018-07-11T22:41:44.208Z,18.00
2018-07-11T22:44:11.524Z,14.60
2018-07-11T22:46:38.840Z,16.47
2018-07-11T22:49:06.164Z,15.10
2018-07-11T22:51:33.702Z,14.53
2018-07-11T22:54:01.009Z,16.10
2018-07-11T22:56:28.391Z,14.17
2018-07-11T22:58:55.709Z,14.40
2018-07-11T23:01:23.024Z,13.23
2018-07-11T23:03:50.331Z,13.27
2018-07-11T23:06:17.621Z,14.10
2018-07-11T23:08:44.922Z,13.50
2018-07-11T23:11:12.244Z,13.17
2018-07-11T23:13:39.575Z,12.40
2018-07-11T23:16:06.868Z,14.03
2018-07-11T23:18:34.186Z,14.10
2018-07-11T23:21:01.484Z,12.73
2018-07-11T23:23:28.797Z,14.00
2018-07-11T23:25:56.112Z,14.40
2018-07-11T23:28:23.429Z,13.40
2018-07-11T23:30:50.830Z,14.83
2018-07-11T23:33:18.172Z,14.53
2018-07-11T23:35:45.480Z,15.07
2018-07-11T23:38:12.892Z,14.90
2018-07-11T23:40:40.187Z,15.70
2018-07-11T23:43:07.515Z,16.80
2018-07-11T23:45:34.896Z,16.63
2018-07-11T23:48:02.228Z,16.80
2018-07-11T23:50:29.546Z,17.03
2018-07-11T23:52:56.843Z,18.57
2018-07-11T23:55:24.368Z,19.30
2018-07-11T23:57:51.657Z,17.97
